Justice — WDG2184 — position and weather

sailwx.info

Track history (hours):
 
Tides and Currents Weather Stations Pressure Air Temp Water Temp Dewpoint Dewpoint Depression Visibility Wind Speed Wind Dir Waves Ship Positions

Justice

More information available from US FCC via Universal Licensing System and Coast Guard Vessel Documentation Center.

Last reported at 2014-Sep-17 07:20 UTC. Time now 2014-Sep-19 03:50 UTC.
Position N 42°21' W 070°56'.

Length 30 m; draft 5.8 m.

Type: Tug. MMSI: 367513010.

Date/timePositionNaut miles runAvg speedWind from/ knotsBaromVisibWave heightAir tempDewpointWater temp
2014-Sep-17 07:20N 42°21' W 070°56'7 9.6
2014-Sep-17 06:33N 42°26' W 070°49'71 8.9
2014-Sep-16 22:29N 43°32' W 070°12'7 7.8
2014-Sep-16 21:32N 43°39' W 070°14'2 1.3
2014-Sep-16 20:12N 43°38' W 070°13'3 3.9
2014-Sep-16 19:33N 43°37' W 070°09'42 6.7
2014-Sep-16 13:19N 42°57' W 070°22'25 8.2
2014-Sep-16 10:15N 42°34' W 070°36'6 8.1
2014-Sep-16 09:32N 42°30' W 070°42'9 8.0
2014-Sep-16 08:23N 42°24' W 070°52'6 0.3
2014-Sep-15 11:23N 42°20' W 070°57'5 5.5
2014-Sep-15 10:32N 42°15' W 070°56'1 0.7
2014-Sep-15 09:31N 42°16' W 070°56'6 6.3
2014-Sep-15 08:33N 42°21' W 071°02'0 0.0
2014-Sep-15 07:33N 42°21' W 071°02'0 0.0
2014-Sep-15 06:33N 42°21' W 071°02'1 0.0
2014-Sep-13 21:05N 42°20' W 071°00'1 1.6
2014-Sep-13 20:30N 42°21' W 071°02'4 1.2
2014-Sep-13 17:24N 42°20' W 070°57'6 0.9
2014-Sep-13 11:03N 42°23' W 071°03'1 0.5
2014-Sep-13 09:29N 42°23' W 071°03'3 3.2
2014-Sep-13 08:31N 42°20' W 071°00'3 0.9
2014-Sep-13 05:23N 42°22' W 071°03'2 0.4
2014-Sep-13 01:27N 42°23' W 071°01'6 0.2
2014-Sep-11 12:26N 42°19' W 070°56'3 1.7
2014-Sep-11 10:30N 42°16' W 070°56'4 4.6
2014-Sep-11 09:33N 42°20' W 070°59'4 3.0
2014-Sep-11 08:13N 42°23' W 071°03'2 0.1
2014-Sep-10 15:32N 42°21' W 071°02'1 0.1
2014-Sep-10 08:22N 42°21' W 071°01'0 0.1
2014-Sep-10 07:33N 42°21' W 071°01'0 0.2
2014-Sep-10 06:33N 42°21' W 071°01'0 0.0
2014-Sep-10 05:32N 42°21' W 071°01'0 0.0
2014-Sep-10 04:25N 42°21' W 071°01'0 0.0
2014-Sep-10 03:24N 42°21' W 071°01'0 0.2
2014-Sep-10 02:22N 42°21' W 071°01'2 2.7
2014-Sep-10 01:30N 42°23' W 071°03'0 0.0
2014-Sep-09 01:20N 42°23' W 071°02'1 0.1
2014-Sep-08 13:27N 42°22' W 071°03'7 6.7
2014-Sep-08 12:27N 42°18' W 070°55'5 0.2
2014-Sep-07 13:25N 42°21' W 071°01'4 3.2
2014-Sep-07 12:19N 42°20' W 070°56'1 1.3
2014-Sep-07 11:33N 42°21' W 070°56'2 2.1
2014-Sep-07 10:33N 42°20' W 070°58'  
Track history (hours):
 
Tides and Currents Weather Stations Pressure Air Temp Water Temp Dewpoint Dewpoint Depression Visibility Wind Speed Wind Dir Waves Ship Positions

Justice

More information available from US FCC via Universal Licensing System and Coast Guard Vessel Documentation Center.

Last reported at 2014-Sep-17 07:20 UTC. Time now 2014-Sep-19 03:50 UTC.
Position N 42°21' W 070°56'.

Length 30 m; draft 5.8 m.

Type: Tug. MMSI: 367513010.

Date/timePositionNaut miles runAvg speedWind from/ knotsBaromVisibWave heightAir tempDewpointWater temp
2014-Sep-17 07:20N 42°21' W 070°56'7 9.6
2014-Sep-17 06:33N 42°26' W 070°49'71 8.9
2014-Sep-16 22:29N 43°32' W 070°12'7 7.8
2014-Sep-16 21:32N 43°39' W 070°14'2 1.3
2014-Sep-16 20:12N 43°38' W 070°13'3 3.9
2014-Sep-16 19:33N 43°37' W 070°09'42 6.7
2014-Sep-16 13:19N 42°57' W 070°22'25 8.2
2014-Sep-16 10:15N 42°34' W 070°36'6 8.1
2014-Sep-16 09:32N 42°30' W 070°42'9 8.0
2014-Sep-16 08:23N 42°24' W 070°52'6 0.3
2014-Sep-15 11:23N 42°20' W 070°57'5 5.5
2014-Sep-15 10:32N 42°15' W 070°56'1 0.7
2014-Sep-15 09:31N 42°16' W 070°56'6 6.3
2014-Sep-15 08:33N 42°21' W 071°02'0 0.0
2014-Sep-15 07:33N 42°21' W 071°02'0 0.0
2014-Sep-15 06:33N 42°21' W 071°02'1 0.0
2014-Sep-13 21:05N 42°20' W 071°00'1 1.6
2014-Sep-13 20:30N 42°21' W 071°02'4 1.2
2014-Sep-13 17:24N 42°20' W 070°57'6 0.9
2014-Sep-13 11:03N 42°23' W 071°03'1 0.5
2014-Sep-13 09:29N 42°23' W 071°03'3 3.2
2014-Sep-13 08:31N 42°20' W 071°00'3 0.9
2014-Sep-13 05:23N 42°22' W 071°03'2 0.4
2014-Sep-13 01:27N 42°23' W 071°01'6 0.2
2014-Sep-11 12:26N 42°19' W 070°56'3 1.7
2014-Sep-11 10:30N 42°16' W 070°56'4 4.6
2014-Sep-11 09:33N 42°20' W 070°59'4 3.0
2014-Sep-11 08:13N 42°23' W 071°03'2 0.1
2014-Sep-10 15:32N 42°21' W 071°02'1 0.1
2014-Sep-10 08:22N 42°21' W 071°01'0 0.1
2014-Sep-10 07:33N 42°21' W 071°01'0 0.2
2014-Sep-10 06:33N 42°21' W 071°01'0 0.0
2014-Sep-10 05:32N 42°21' W 071°01'0 0.0
2014-Sep-10 04:25N 42°21' W 071°01'0 0.0
2014-Sep-10 03:24N 42°21' W 071°01'0 0.2
2014-Sep-10 02:22N 42°21' W 071°01'2 2.7
2014-Sep-10 01:30N 42°23' W 071°03'0 0.0
2014-Sep-09 01:20N 42°23' W 071°02'1 0.1
2014-Sep-08 13:27N 42°22' W 071°03'7 6.7
2014-Sep-08 12:27N 42°18' W 070°55'5 0.2
2014-Sep-07 13:25N 42°21' W 071°01'4 3.2
2014-Sep-07 12:19N 42°20' W 070°56'1 1.3
2014-Sep-07 11:33N 42°21' W 070°56'2 2.1
2014-Sep-07 10:33N 42°20' W 070°58'  

Dump ship's entire track history